Time;durP1;ratioP1;P1;durP2;ratioP2;P2;SDS_P1;SDS_P2;PMS_P1;PMS_P2;Temp;Humidity;BMP_temperature;BMP_pressure;BME280_temperature;BME280_humidity;BME280_pressure;Samples;Min_cycle;Max_cycle;Signal;HPM_P1;HPM_P2
2020/12/30 00:00:32;;;;;;;12.43;9.43;;;;;;;1.04;85.54;94842.00;5090546;28;20098;-62
2020/12/30 00:03:00;;;;;;;14.90;11.93;;;;;;;1.00;85.25;94839.03;5054605;28;20050;-62
2020/12/30 00:05:28;;;;;;;13.68;9.75;;;;;;;0.92;85.63;94836.75;5087430;28;20059;-61
2020/12/30 00:07:55;;;;;;;12.98;10.05;;;;;;;1.04;85.82;94844.59;5092066;28;20411;-61
2020/12/30 00:10:23;;;;;;;13.20;10.55;;;;;;;0.99;85.50;94840.03;5088474;28;20052;-62
2020/12/30 00:12:51;;;;;;;14.93;10.52;;;;;;;0.99;85.82;94834.84;5093223;27;20063;-62
2020/12/30 00:15:20;;;;;;;14.88;11.35;;;;;;;1.04;85.86;94829.78;5107076;27;20046;-61
2020/12/30 00:17:47;;;;;;;19.15;14.23;;;;;;;1.04;85.60;94829.00;5096126;28;20495;-62
2020/12/30 00:20:16;;;;;;;18.23;13.30;;;;;;;1.05;85.71;94827.97;5082076;27;20055;-61
2020/12/30 00:22:45;;;;;;;21.40;15.98;;;;;;;1.06;85.40;94830.38;5092702;28;20070;-61
2020/12/30 00:25:13;;;;;;;17.40;13.93;;;;;;;1.07;85.40;94841.53;5111648;27;20082;-62
2020/12/30 00:27:43;;;;;;;21.83;16.05;;;;;;;1.06;85.63;94839.94;5112803;27;20051;-65
2020/12/30 00:30:14;;;;;;;18.80;14.30;;;;;;;1.05;85.96;94848.75;5111281;27;20043;-61
2020/12/30 00:32:43;;;;;;;18.33;12.82;;;;;;;1.04;86.06;94840.19;5111594;27;20043;-61
2020/12/30 00:35:15;;;;;;;17.55;13.77;;;;;;;1.12;86.08;94840.84;5111232;27;20039;-61
2020/12/30 00:37:43;;;;;;;24.77;16.38;;;;;;;1.17;85.94;94843.59;5065363;27;20187;-62
2020/12/30 00:40:11;;;;;;;20.20;16.20;;;;;;;1.19;86.11;94852.75;5108407;27;20055;-62
2020/12/30 00:42:39;;;;;;;25.15;17.60;;;;;;;1.15;85.82;94843.81;5093778;27;20268;-61
2020/12/30 00:45:08;;;;;;;18.55;14.82;;;;;;;1.12;85.82;94841.66;5087845;27;20043;-62
2020/12/30 00:47:37;;;;;;;26.20;18.02;;;;;;;1.12;85.63;94843.47;5055512;28;20047;-61
2020/12/30 00:50:08;;;;;;;27.05;18.67;;;;;;;1.10;85.64;94848.88;5090179;27;20052;-61
2020/12/30 00:52:41;;;;;;;22.38;17.00;;;;;;;1.01;85.40;94850.22;5083686;27;20042;-62
2020/12/30 00:55:12;;;;;;;21.00;16.60;;;;;;;0.98;85.43;94848.06;5099230;27;20514;-67
2020/12/30 00:58:03;;;;;;;21.75;17.15;;;;;;;1.03;85.03;94840.41;5089986;28;20055;-62
2020/12/30 01:00:32;;;;;;;22.50;16.80;;;;;;;0.96;84.96;94834.50;5086974;27;20059;-62
2020/12/30 01:03:17;;;;;;;19.42;14.93;;;;;;;0.97;85.35;94843.88;5105683;27;20043;-62
2020/12/30 01:05:44;;;;;;;22.83;15.52;;;;;;;0.97;84.87;94841.28;5085208;28;20515;-62
2020/12/30 01:08:11;;;;;;;24.08;16.63;;;;;;;0.88;85.31;94836.41;5085912;27;20059;-62
2020/12/30 01:10:40;;;;;;;24.05;17.35;;;;;;;0.88;85.74;94833.81;5096414;27;20050;-62
2020/12/30 01:13:07;;;;;;;21.35;15.38;;;;;;;0.88;85.63;94830.41;5083982;28;20411;-62
2020/12/30 01:15:34;;;;;;;20.73;15.05;;;;;;;0.92;85.38;94832.34;5083432;27;20051;-62
2020/12/30 01:18:02;;;;;;;17.23;13.45;;;;;;;0.95;85.19;94836.31;5095679;28;20046;-63
2020/12/30 01:20:30;;;;;;;20.08;14.70;;;;;;;1.00;84.91;94836.44;5084568;27;20044;-63
2020/12/30 01:22:58;;;;;;;20.48;13.15;;;;;;;0.97;84.72;94836.91;5103890;28;20052;-62
2020/12/30 01:25:25;;;;;;;17.13;12.65;;;;;;;0.98;85.01;94840.28;5106079;27;20051;-62
2020/12/30 01:27:54;;;;;;;19.55;13.40;;;;;;;0.91;84.88;94823.00;5104286;28;20048;-62
2020/12/30 01:30:21;;;;;;;20.02;14.20;;;;;;;0.97;84.62;94838.69;5097952;28;20055;-63
2020/12/30 01:32:48;;;;;;;22.88;16.25;;;;;;;0.87;84.72;94834.81;5100576;28;20400;-62
2020/12/30 01:35:18;;;;;;;15.00;11.52;;;;;;;0.79;85.15;94822.16;5083611;28;20050;-62
2020/12/30 01:37:45;;;;;;;15.60;10.38;;;;;;;0.73;85.14;94815.25;5087037;28;20605;-62
2020/12/30 01:40:12;;;;;;;13.43;10.95;;;;;;;0.71;85.56;94812.06;5086270;28;20594;-62
2020/12/30 01:42:49;;;;;;;10.95;8.52;;;;;;;0.80;85.76;94817.75;5095521;28;20047;-62
2020/12/30 01:45:16;;;;;;;17.45;11.20;;;;;;;0.81;85.43;94814.16;5103873;28;20044;-62
2020/12/30 01:47:47;;;;;;;18.48;11.52;;;;;;;0.89;85.63;94809.44;5087444;28;20047;-62
2020/12/30 01:50:15;;;;;;;12.70;9.95;;;;;;;0.95;86.06;94820.75;5078744;27;20059;-62
2020/12/30 01:52:43;;;;;;;19.30;11.38;;;;;;;1.01;85.65;94814.63;5103978;28;20052;-62
2020/12/30 01:55:11;;;;;;;31.25;16.23;;;;;;;1.03;85.53;94819.63;5080677;28;20059;-62
2020/12/30 01:57:39;;;;;;;26.08;15.82;;;;;;;0.93;85.71;94817.56;5083291;28;20419;-62
2020/12/30 02:00:09;;;;;;;28.88;16.73;;;;;;;0.86;86.27;94812.47;5070584;28;20048;-63
2020/12/30 02:02:38;;;;;;;31.05;17.40;;;;;;;0.85;86.07;94812.69;5099526;28;20055;-62
2020/12/30 02:05:08;;;;;;;25.95;16.92;;;;;;;0.86;86.65;94816.88;5069156;28;20059;-63
2020/12/30 02:07:36;;;;;;;34.05;18.77;;;;;;;0.87;86.20;94824.44;5094319;28;20048;-62
2020/12/30 02:10:04;;;;;;;41.33;20.95;;;;;;;0.88;86.43;94820.84;5083982;28;20055;-62
2020/12/30 02:12:32;;;;;;;31.20;19.00;;;;;;;0.83;86.78;94812.91;5109540;27;20047;-62
2020/12/30 02:15:00;;;;;;;36.97;20.42;;;;;;;0.84;86.77;94819.69;5076045;28;20048;-62
2020/12/30 02:17:28;;;;;;;34.08;19.42;;;;;;;0.90;86.90;94813.63;5090338;28;20415;-63
2020/12/30 02:19:55;;;;;;;29.27;17.80;;;;;;;0.94;86.99;94815.75;5075028;27;20059;-62
2020/12/30 02:22:25;;;;;;;41.42;20.52;;;;;;;0.98;86.70;94824.69;5075662;28;20043;-62
2020/12/30 02:24:52;;;;;;;69.38;24.98;;;;;;;1.00;86.56;94820.84;5088066;27;20236;-62
2020/12/30 02:27:19;;;;;;;82.50;24.08;;;;;;;1.02;86.76;94812.84;5088249;28;20618;-62
2020/12/30 02:29:46;;;;;;;58.10;24.92;;;;;;;1.11;86.71;94816.69;5108690;27;20047;-62
2020/12/30 02:32:13;;;;;;;200.80;36.45;;;;;;;1.02;86.44;94812.84;5103269;28;20302;-64
2020/12/30 02:34:40;;;;;;;68.40;26.67;;;;;;;0.99;86.88;94815.88;5097978;27;20062;-62
2020/12/30 02:37:08;;;;;;;65.05;25.17;;;;;;;0.98;86.69;94809.09;5109326;27;20036;-63
2020/12/30 02:39:35;;;;;;;126.55;32.75;;;;;;;0.99;86.70;94818.47;5082764;27;20051;-64
2020/12/30 02:42:02;;;;;;;99.85;29.13;;;;;;;0.96;86.95;94816.31;5065028;27;20575;-61
2020/12/30 02:44:30;;;;;;;77.93;30.23;;;;;;;1.02;86.63;94818.03;5107594;27;20062;-62
2020/12/30 02:46:58;;;;;;;80.00;32.60;;;;;;;1.03;86.64;94811.84;5101920;27;20050;-62
2020/12/30 02:49:25;;;;;;;73.47;32.97;;;;;;;1.03;86.42;94812.63;5081254;28;20055;-61
2020/12/30 02:51:52;;;;;;;78.38;36.22;;;;;;;1.04;86.25;94813.44;5107813;27;20055;-62
2020/12/30 02:54:19;;;;;;;148.50;46.45;;;;;;;1.00;86.65;94817.47;5084715;28;20129;-62
2020/12/30 02:56:46;;;;;;;67.40;34.58;;;;;;;0.98;86.91;94816.91;5087823;28;20063;-62
2020/12/30 02:59:14;;;;;;;52.10;27.17;;;;;;;0.97;86.81;94816.13;5108225;27;20051;-65
2020/12/30 03:01:44;;;;;;;52.13;27.80;;;;;;;0.95;87.35;94820.75;5107454;27;20415;-62
2020/12/30 03:04:11;;;;;;;115.50;41.38;;;;;;;0.98;86.88;94814.31;5103396;27;20062;-62
2020/12/30 03:06:39;;;;;;;58.90;30.40;;;;;;;0.94;86.86;94818.34;5090660;27;20059;-62
2020/12/30 03:09:06;;;;;;;54.03;29.17;;;;;;;0.94;86.97;94811.34;5072172;28;20622;-62
2020/12/30 03:11:34;;;;;;;59.95;31.90;;;;;;;0.94;87.17;94820.94;5107133;27;20058;-62
2020/12/30 03:14:02;;;;;;;55.72;29.17;;;;;;;0.90;87.17;94799.81;5072186;27;20051;-62
2020/12/30 03:16:28;;;;;;;55.65;28.77;;;;;;;0.86;87.07;94802.06;5107704;27;20047;-62
2020/12/30 03:18:56;;;;;;;44.65;25.10;;;;;;;0.91;87.58;94804.81;5106631;27;20051;-62
2020/12/30 03:21:23;;;;;;;57.10;29.30;;;;;;;1.03;87.08;94806.66;5089030;28;20043;-62
2020/12/30 03:23:50;;;;;;;41.13;25.33;;;;;;;1.05;86.97;94802.81;5108312;27;20047;-62
2020/12/30 03:26:18;;;;;;;48.70;26.85;;;;;;;1.12;86.67;94791.50;5086380;27;20047;-61
2020/12/30 03:28:45;;;;;;;39.85;24.90;;;;;;;1.10;86.74;94794.34;5103464;27;20074;-62
2020/12/30 03:31:12;;;;;;;28.67;18.08;;;;;;;1.07;86.60;94793.00;5106960;27;20074;-61
2020/12/30 03:33:39;;;;;;;36.83;20.00;;;;;;;1.06;86.34;94785.41;5090315;27;20051;-61
2020/12/30 03:36:06;;;;;;;25.45;17.85;;;;;;;0.98;86.51;94786.53;5107948;27;21228;-62
2020/12/30 03:38:34;;;;;;;29.02;17.50;;;;;;;0.98;86.46;94793.53;5106060;27;20486;-62
2020/12/30 03:41:01;;;;;;;38.83;22.98;;;;;;;0.97;86.47;94786.75;5086716;27;20047;-62
2020/12/30 03:43:28;;;;;;;33.28;18.98;;;;;;;0.94;86.78;94771.59;5086627;27;20047;-62
2020/12/30 03:45:56;;;;;;;32.10;20.27;;;;;;;1.03;86.42;94789.25;5106795;27;20082;-61
2020/12/30 03:48:23;;;;;;;28.63;20.15;;;;;;;1.09;86.66;94784.19;5060986;27;20503;-61
2020/12/30 03:50:50;;;;;;;37.00;22.13;;;;;;;1.08;86.18;94788.56;5109738;27;20054;-62
2020/12/30 03:53:17;;;;;;;29.38;19.10;;;;;;;1.03;86.14;94778.84;5084442;27;20040;-62
2020/12/30 03:55:45;;;;;;;25.70;17.88;;;;;;;0.97;86.23;94771.16;5087480;27;20047;-62
2020/12/30 03:58:12;;;;;;;30.48;19.25;;;;;;;1.06;86.29;94782.81;5088149;27;20047;-62
2020/12/30 04:00:39;;;;;;;40.25;24.30;;;;;;;1.08;86.00;94780.78;5105882;27;20039;-65
2020/12/30 04:03:06;;;;;;;35.92;23.95;;;;;;;1.07;86.05;94784.38;5106607;27;20054;-62
2020/12/30 04:05:34;;;;;;;36.20;24.90;;;;;;;1.06;86.42;94782.81;5105427;27;20055;-66
2020/12/30 04:08:01;;;;;;;50.30;29.20;;;;;;;1.10;86.20;94786.56;5106223;27;20066;-62
2020/12/30 04:10:29;;;;;;;41.28;25.90;;;;;;;1.12;85.90;94784.53;5087828;27;20069;-62
2020/12/30 04:12:56;;;;;;;59.03;35.35;;;;;;;1.19;85.90;94780.00;5054033;27;20062;-61
2020/12/30 04:15:23;;;;;;;53.75;32.67;;;;;;;1.22;85.88;94787.34;5105670;27;20046;-61
2020/12/30 04:17:50;;;;;;;51.30;31.17;;;;;;;1.25;85.89;94803.50;5105872;27;20044;-62
2020/12/30 04:20:17;;;;;;;58.25;34.58;;;;;;;1.28;86.15;94797.88;5104347;27;20549;-61
2020/12/30 04:22:44;;;;;;;41.78;26.83;;;;;;;1.31;86.16;94797.41;5105640;27;20051;-62
2020/12/30 04:25:12;;;;;;;42.95;27.40;;;;;;;1.31;85.67;94781.81;5071417;27;20714;-61
2020/12/30 04:27:39;;;;;;;32.75;22.75;;;;;;;1.34;85.40;94796.97;5105816;27;20050;-62
2020/12/30 04:30:06;;;;;;;34.08;23.77;;;;;;;1.34;85.52;94802.16;5085860;27;20058;-62
2020/12/30 04:32:34;;;;;;;36.30;24.48;;;;;;;1.29;85.16;94799.47;5104981;27;20048;-61
2020/12/30 04:35:03;;;;;;;36.22;24.38;;;;;;;1.32;85.28;94783.41;5089310;27;21419;-61
2020/12/30 04:37:30;;;;;;;46.72;29.08;;;;;;;1.27;85.75;94778.88;5088396;27;20055;-62
2020/12/30 04:39:58;;;;;;;58.45;34.63;;;;;;;1.24;85.82;94776.72;5105458;27;20048;-62
2020/12/30 04:42:36;;;;;;;51.13;30.10;;;;;;;1.21;86.30;94782.41;5092265;27;20039;-62
2020/12/30 04:45:10;;;;;;;57.92;33.25;;;;;;;1.15;86.16;94788.47;5087937;27;20043;-62
2020/12/30 04:47:41;;;;;;;54.30;29.73;;;;;;;1.15;86.61;94789.28;5082927;28;20145;-62
2020/12/30 04:50:08;;;;;;;50.13;28.55;;;;;;;1.17;86.53;94796.84;5099521;27;20403;-61
2020/12/30 04:52:39;;;;;;;52.42;29.30;;;;;;;1.16;86.53;94797.84;5105471;27;20056;-62
2020/12/30 04:55:06;;;;;;;49.15;30.33;;;;;;;1.21;86.79;94793.56;5070788;27;20062;-61
2020/12/30 04:57:58;;;;;;;52.72;31.52;;;;;;;1.26;86.66;94794.72;5099095;28;20051;-61
2020/12/30 05:00:25;;;;;;;43.03;28.65;;;;;;;1.27;86.65;94797.06;5102350;27;20077;-61
2020/12/30 05:02:56;;;;;;;46.92;27.98;;;;;;;1.29;86.93;94794.25;5069686;27;20426;-62
2020/12/30 05:05:24;;;;;;;44.53;27.10;;;;;;;1.30;86.62;94788.03;5104981;27;20043;-62
2020/12/30 05:07:55;;;;;;;48.45;28.33;;;;;;;1.32;86.68;94799.81;5086579;27;20342;-62
2020/12/30 05:10:22;;;;;;;45.40;27.15;;;;;;;1.32;86.49;94793.78;5087252;27;20047;-62
2020/12/30 05:12:54;;;;;;;55.88;32.47;;;;;;;1.34;86.61;94794.38;5106840;27;20387;-62
2020/12/30 05:15:22;;;;;;;54.65;32.47;;;;;;;1.36;86.54;94787.91;5086087;27;20450;-62
2020/12/30 05:17:51;;;;;;;53.45;33.08;;;;;;;1.34;86.42;94779.59;5087329;28;20058;-63
2020/12/30 05:20:18;;;;;;;54.72;29.88;;;;;;;1.37;86.46;94783.53;5087201;28;20058;-62
2020/12/30 05:22:46;;;;;;;47.28;30.02;;;;;;;1.34;86.58;94782.19;5083780;28;20047;-62
2020/12/30 05:25:13;;;;;;;52.33;30.65;;;;;;;1.34;86.68;94776.19;5088347;28;20050;-62
2020/12/30 05:27:40;;;;;;;44.17;28.35;;;;;;;1.34;86.41;94778.78;5068037;28;20052;-62
2020/12/30 05:30:07;;;;;;;48.30;28.83;;;;;;;1.39;86.42;94776.31;5106077;27;20031;-63
2020/12/30 05:32:37;;;;;;;39.67;24.48;;;;;;;1.40;86.71;94764.91;5105311;28;20051;-64
2020/12/30 05:35:05;;;;;;;41.67;25.30;;;;;;;1.44;86.71;94773.81;5101341;28;20051;-62
2020/12/30 05:37:34;;;;;;;44.92;27.55;;;;;;;1.41;86.39;94771.69;5105331;27;20055;-62
2020/12/30 05:40:17;;;;;;;56.80;30.05;;;;;;;1.47;86.80;94778.56;5089295;28;20066;-62
2020/12/30 05:42:44;;;;;;;47.83;31.17;;;;;;;1.42;86.75;94772.47;5070251;28;20419;-62
2020/12/30 05:45:23;;;;;;;52.65;30.80;;;;;;;1.44;86.94;94789.41;5102567;28;20056;-62
2020/12/30 05:47:51;;;;;;;52.30;29.85;;;;;;;1.47;86.37;94795.97;5093125;28;20055;-62
2020/12/30 05:50:23;;;;;;;59.40;35.92;;;;;;;1.44;86.41;94786.81;5102639;28;20067;-62
2020/12/30 05:52:52;;;;;;;64.45;34.20;;;;;;;1.45;86.14;94783.19;5102350;28;20417;-62
2020/12/30 05:55:26;;;;;;;53.38;33.40;;;;;;;1.45;86.19;94779.81;5093106;27;20051;-62
2020/12/30 05:57:54;;;;;;;49.35;31.83;;;;;;;1.48;86.13;94782.75;5086895;27;20051;-62
2020/12/30 06:00:29;;;;;;;59.13;36.53;;;;;;;1.44;86.23;94781.59;5089749;27;20063;-62
2020/12/30 06:02:56;;;;;;;62.45;36.90;;;;;;;1.40;86.29;94770.09;5108992;27;20620;-63
2020/12/30 06:05:24;;;;;;;62.88;34.85;;;;;;;1.36;86.49;94768.97;5073419;27;20360;-62
2020/12/30 06:07:58;;;;;;;76.57;40.72;;;;;;;1.43;86.32;94768.84;5108615;27;20048;-62
2020/12/30 06:10:27;;;;;;;60.03;34.05;;;;;;;1.44;86.27;94773.81;5081035;27;20051;-63
2020/12/30 06:12:59;;;;;;;80.75;40.78;;;;;;;1.49;86.09;94776.53;5067449;27;20059;-62
2020/12/30 06:15:28;;;;;;;112.05;45.45;;;;;;;1.45;85.91;94774.63;5071306;27;20062;-62
2020/12/30 06:17:58;;;;;;;76.05;36.08;;;;;;;1.42;86.31;94775.06;5089717;27;20555;-62
2020/12/30 06:20:32;;;;;;;68.38;35.88;;;;;;;1.40;86.05;94772.69;5108953;27;20051;-62
2020/12/30 06:23:08;;;;;;;51.33;28.60;;;;;;;1.31;86.40;94761.84;5072615;27;20054;-63
2020/12/30 06:25:38;;;;;;;62.25;32.30;;;;;;;1.47;86.21;94778.56;5109425;27;20043;-62
2020/12/30 06:28:08;;;;;;;58.85;33.30;;;;;;;1.51;86.18;94777.09;5091155;28;20058;-62
2020/12/30 06:30:37;;;;;;;56.25;31.17;;;;;;;1.51;86.12;94774.50;5090877;27;20050;-62
2020/12/30 06:33:05;;;;;;;58.47;32.15;;;;;;;1.56;85.91;94781.63;5090350;28;20047;-62
2020/12/30 06:35:34;;;;;;;57.38;31.42;;;;;;;1.60;85.85;94781.94;5090431;28;20059;-62
2020/12/30 06:38:41;;;;;;;62.28;36.00;;;;;;;1.60;85.73;94782.72;5082448;28;20055;-63
2020/12/30 06:41:08;;;;;;;54.60;31.05;;;;;;;1.61;85.74;94783.53;5042133;28;20685;-62
2020/12/30 06:43:35;;;;;;;57.85;31.33;;;;;;;1.63;85.71;94789.31;5040055;28;20056;-63
2020/12/30 06:46:03;;;;;;;49.67;28.80;;;;;;;1.64;85.86;94785.69;5071246;27;20503;-62
2020/12/30 06:48:57;;;;;;;52.65;31.33;;;;;;;1.64;85.84;94785.69;5079869;28;20559;-62
2020/12/30 06:51:35;;;;;;;45.08;27.55;;;;;;;1.65;86.19;94782.06;5106935;27;20055;-62
2020/12/30 06:54:04;;;;;;;50.40;28.42;;;;;;;1.67;86.04;94790.41;5106241;27;20047;-63
2020/12/30 06:56:44;;;;;;;48.35;28.05;;;;;;;1.63;86.20;94784.09;5105735;27;20047;-64
2020/12/30 06:59:15;;;;;;;46.40;26.02;;;;;;;1.63;86.41;94792.69;5069042;28;20209;-63
2020/12/30 07:02:07;;;;;;;43.25;27.38;;;;;;;1.69;86.19;94783.19;5087879;28;20645;-63
2020/12/30 07:04:36;;;;;;;40.95;25.27;;;;;;;1.60;86.10;94782.72;5105398;27;20071;-62
2020/12/30 07:07:23;;;;;;;44.70;27.52;;;;;;;1.67;86.24;94787.81;5107194;27;20062;-63
2020/12/30 07:09:51;;;;;;;46.88;26.65;;;;;;;1.68;86.16;94792.00;5107733;27;20616;-62
2020/12/30 07:12:18;;;;;;;49.83;29.90;;;;;;;1.69;86.29;94786.59;5098240;27;20051;-62
2020/12/30 07:14:45;;;;;;;55.30;30.52;;;;;;;1.69;86.21;94786.59;5105931;27;20628;-63
2020/12/30 07:17:13;;;;;;;60.28;32.35;;;;;;;1.66;86.27;94779.22;5101454;27;20055;-63
2020/12/30 07:19:40;;;;;;;49.75;27.98;;;;;;;1.74;86.41;94790.28;5098441;27;20453;-62
2020/12/30 07:22:09;;;;;;;44.95;27.70;;;;;;;1.77;86.38;94785.44;5084476;28;20051;-62
2020/12/30 07:24:45;;;;;;;47.15;29.00;;;;;;;1.83;86.26;94792.31;5087901;27;20055;-62
2020/12/30 07:27:14;;;;;;;43.88;26.70;;;;;;;1.87;86.28;94802.28;5085411;28;20538;-63
2020/12/30 07:29:46;;;;;;;46.67;28.13;;;;;;;1.87;86.29;94808.25;5081543;28;20052;-63
2020/12/30 07:32:14;;;;;;;51.90;31.92;;;;;;;1.86;86.43;94798.09;5082300;28;20376;-62
2020/12/30 07:34:47;;;;;;;47.72;30.13;;;;;;;1.86;86.48;94798.09;5081223;28;20074;-63
2020/12/30 07:37:15;;;;;;;52.60;33.30;;;;;;;1.84;86.53;94804.31;5083439;28;20396;-62
2020/12/30 07:39:47;;;;;;;52.50;30.35;;;;;;;1.93;86.64;94803.94;5059371;28;20348;-64
2020/12/30 07:42:26;;;;;;;57.72;33.92;;;;;;;2.01;86.31;94803.63;5061182;28;20056;-62
2020/12/30 07:44:58;;;;;;;77.75;43.75;;;;;;;2.01;86.24;94806.22;5064240;28;20459;-63
2020/12/30 07:47:27;;;;;;;62.05;35.30;;;;;;;1.94;86.67;94808.13;5081641;28;20511;-64
2020/12/30 07:50:07;;;;;;;49.65;30.05;;;;;;;2.05;86.34;94815.13;5081286;28;20055;-62
2020/12/30 07:52:34;;;;;;;41.28;26.85;;;;;;;2.13;86.24;94819.19;5057438;28;20512;-63
2020/12/30 07:55:02;;;;;;;41.95;27.80;;;;;;;2.17;85.95;94820.31;5083634;28;20055;-63
2020/12/30 07:57:31;;;;;;;46.60;30.23;;;;;;;2.15;85.83;94810.13;5081193;28;20044;-62
2020/12/30 07:59:58;;;;;;;50.38;31.27;;;;;;;2.24;85.59;94817.59;5091054;28;20554;-62
2020/12/30 08:02:26;;;;;;;56.38;34.28;;;;;;;2.22;86.32;94822.25;5080930;28;20059;-62
2020/12/30 08:05:01;;;;;;;56.88;34.60;;;;;;;2.19;85.94;94817.47;5073281;28;20567;-62
2020/12/30 08:07:32;;;;;;;50.42;33.33;;;;;;;2.17;86.47;94824.72;5070730;28;20459;-63
2020/12/30 08:09:59;;;;;;;52.30;32.67;;;;;;;2.21;86.80;94820.66;5082157;28;20051;-62
2020/12/30 08:12:27;;;;;;;53.88;32.03;;;;;;;2.30;86.76;94827.88;5079881;28;20074;-62
2020/12/30 08:14:54;;;;;;;53.45;35.05;;;;;;;2.40;86.34;94832.47;5064076;28;20051;-62
2020/12/30 08:17:22;;;;;;;70.22;42.70;;;;;;;2.45;86.24;94824.78;5080994;28;20052;-62
2020/12/30 08:19:50;;;;;;;67.20;44.25;;;;;;;2.52;85.76;94832.47;5070879;28;20412;-64
2020/12/30 08:22:26;;;;;;;81.88;46.50;;;;;;;2.48;86.11;94825.34;5081298;28;20059;-62
2020/12/30 08:25:00;;;;;;;62.85;38.20;;;;;;;2.45;86.08;94826.59;5082367;28;20055;-62
2020/12/30 08:27:29;;;;;;;64.25;37.88;;;;;;;2.45;86.40;94832.59;5083112;27;20951;-62
2020/12/30 08:30:16;;;;;;;68.63;42.88;;;;;;;2.42;86.68;94833.03;5090557;27;20491;-62
2020/12/30 08:33:03;;;;;;;66.65;42.65;;;;;;;2.53;87.17;94843.66;5086306;28;20875;-62
2020/12/30 08:35:37;;;;;;;59.63;40.00;;;;;;;2.60;87.14;94839.91;5086268;28;20043;-62
2020/12/30 08:38:12;;;;;;;63.85;39.25;;;;;;;2.66;86.72;94845.97;5088072;27;20044;-62
2020/12/30 08:40:41;;;;;;;61.03;35.42;;;;;;;2.70;86.70;94843.72;5080247;27;20621;-64
2020/12/30 08:43:11;;;;;;;63.45;38.83;;;;;;;2.82;86.30;94844.47;5088033;27;20047;-61
2020/12/30 08:45:49;;;;;;;58.10;36.95;;;;;;;2.91;85.94;94843.06;5086532;28;20044;-62
2020/12/30 08:48:20;;;;;;;51.05;36.17;;;;;;;2.98;85.90;94848.13;5083676;27;20062;-62
2020/12/30 08:50:52;;;;;;;48.78;33.97;;;;;;;2.96;85.10;94826.75;5091024;28;20074;-62
2020/12/30 08:53:34;;;;;;;65.45;45.22;;;;;;;3.02;85.08;94841.41;5079361;27;20044;-62
2020/12/30 08:56:02;;;;;;;61.90;41.05;;;;;;;3.00;85.13;94843.50;5086543;28;20505;-63
2020/12/30 08:58:29;;;;;;;55.08;39.53;;;;;;;3.04;85.25;94841.97;5094350;27;20059;-62
2020/12/30 09:00:56;;;;;;;59.08;41.30;;;;;;;3.09;84.88;94849.09;5073407;28;20055;-64
2020/12/30 09:03:26;;;;;;;57.00;38.35;;;;;;;3.08;84.97;94850.91;5104834;27;20051;-63
2020/12/30 09:05:58;;;;;;;59.58;37.42;;;;;;;3.13;84.62;94849.44;5086878;28;20113;-63
2020/12/30 09:08:28;;;;;;;64.57;40.90;;;;;;;3.13;84.59;94841.63;5085205;27;20040;-63
2020/12/30 09:10:56;;;;;;;58.72;40.35;;;;;;;3.11;84.90;94834.03;5107167;27;20044;-63
2020/12/30 09:13:33;;;;;;;57.22;40.90;;;;;;;3.17;84.92;94837.50;5058395;28;20043;-64
2020/12/30 09:16:04;;;;;;;68.00;43.40;;;;;;;3.18;84.70;94839.09;5101089;28;20487;-63
2020/12/30 09:18:32;;;;;;;88.32;57.95;;;;;;;3.19;84.63;94838.06;5086169;28;20066;-64
2020/12/30 09:21:00;;;;;;;88.90;58.47;;;;;;;3.19;84.94;94843.28;5101145;28;20044;-62
2020/12/30 09:23:28;;;;;;;67.70;45.20;;;;;;;3.22;85.49;94835.75;5085201;28;20059;-63
2020/12/30 09:25:59;;;;;;;83.10;47.80;;;;;;;3.26;85.64;94825.69;5105531;27;20659;-63
2020/12/30 09:28:26;;;;;;;38.65;24.77;;;;;;;3.33;84.73;94826.31;5082841;28;20056;-63
2020/12/30 09:31:05;;;;;;;38.05;27.65;;;;;;;3.41;84.96;94819.09;5083788;28;20052;-64
2020/12/30 09:33:33;;;;;;;41.70;27.98;;;;;;;3.53;84.54;94825.03;5082654;28;20051;-64
2020/12/30 09:36:08;;;;;;;42.33;29.27;;;;;;;3.62;84.68;94822.81;5073477;28;20052;-63
2020/12/30 09:38:36;;;;;;;59.67;38.90;;;;;;;3.67;84.63;94815.09;5072905;28;20054;-63
2020/12/30 09:41:13;;;;;;;54.80;36.78;;;;;;;3.69;84.04;94813.81;5083914;28;20048;-63
2020/12/30 09:43:45;;;;;;;43.42;29.85;;;;;;;3.77;84.26;94819.63;5083238;28;20044;-63
2020/12/30 09:46:20;;;;;;;45.83;30.33;;;;;;;3.85;83.81;94821.84;5085146;28;20055;-63
2020/12/30 09:48:47;;;;;;;47.28;27.48;;;;;;;3.86;83.87;94820.84;5057612;28;20051;-63
2020/12/30 09:51:17;;;;;;;35.85;25.90;;;;;;;3.90;83.21;94810.69;5085481;28;20050;-63
2020/12/30 09:53:44;;;;;;;32.22;25.13;;;;;;;3.88;83.56;94800.47;5076561;28;20532;-63
2020/12/30 09:56:13;;;;;;;30.13;23.13;;;;;;;3.94;82.92;94804.75;5064944;28;20036;-63
2020/12/30 09:58:40;;;;;;;31.55;22.27;;;;;;;3.97;83.29;94790.44;5075284;28;20059;-63
2020/12/30 10:01:07;;;;;;;25.98;20.70;;;;;;;4.04;82.14;94790.25;5095900;28;20056;-63
2020/12/30 10:03:34;;;;;;;34.83;21.90;;;;;;;4.09;82.64;94803.38;5081771;28;20052;-66
2020/12/30 10:06:02;;;;;;;25.48;19.13;;;;;;;4.15;82.35;94811.03;5098252;28;20032;-63
2020/12/30 10:08:30;;;;;;;32.22;23.02;;;;;;;4.18;82.82;94812.38;5081765;28;20044;-63
2020/12/30 10:10:58;;;;;;;31.27;22.23;;;;;;;4.19;83.08;94819.16;5069687;28;20070;-63
2020/12/30 10:13:25;;;;;;;28.63;21.15;;;;;;;4.18;82.67;94811.59;5084473;28;20193;-63
2020/12/30 10:15:52;;;;;;;24.98;21.38;;;;;;;4.18;82.58;94794.09;5084143;28;20620;-63
2020/12/30 10:18:20;;;;;;;29.17;17.80;;;;;;;4.20;81.68;94797.25;5058822;28;20048;-63
2020/12/30 10:20:47;;;;;;;20.63;16.45;;;;;;;4.24;82.19;94792.34;5092355;28;20048;-63
2020/12/30 10:23:14;;;;;;;21.98;16.25;;;;;;;4.26;82.79;94806.72;5075706;28;20044;-63
2020/12/30 10:25:41;;;;;;;27.98;19.63;;;;;;;4.24;82.11;94800.97;5083095;28;20051;-63
2020/12/30 10:28:08;;;;;;;36.38;25.92;;;;;;;4.24;82.54;94795.75;5081638;28;20052;-63
2020/12/30 10:30:35;;;;;;;34.42;25.02;;;;;;;4.24;82.49;94790.53;5081558;28;20056;-63
2020/12/30 10:33:13;;;;;;;40.95;27.13;;;;;;;4.24;81.96;94797.56;5084946;28;20056;-63
2020/12/30 10:35:40;;;;;;;38.97;27.00;;;;;;;4.25;81.76;94802.53;5075310;28;20044;-63
2020/12/30 10:38:07;;;;;;;36.55;24.17;;;;;;;4.24;81.95;94798.34;5087450;28;20056;-63
2020/12/30 10:40:34;;;;;;;34.97;24.38;;;;;;;4.24;81.65;94798.34;5085832;28;20044;-64
2020/12/30 10:43:03;;;;;;;35.15;26.05;;;;;;;4.29;81.95;94803.63;5090402;28;20415;-63
2020/12/30 10:45:32;;;;;;;35.40;25.55;;;;;;;4.34;81.55;94802.88;5097522;28;20705;-63
2020/12/30 10:48:00;;;;;;;37.10;24.95;;;;;;;4.35;82.21;94793.25;5090574;28;20048;-66
2020/12/30 10:50:28;;;;;;;35.53;25.88;;;;;;;4.44;82.12;94802.22;5071907;28;20056;-62
2020/12/30 10:52:55;;;;;;;36.15;27.27;;;;;;;4.50;82.11;94796.00;5070863;28;20051;-64
2020/12/30 10:55:22;;;;;;;41.50;30.55;;;;;;;4.56;81.82;94795.03;5090400;28;20423;-64
2020/12/30 10:57:50;;;;;;;36.72;27.35;;;;;;;4.60;81.46;94790.94;5087388;28;20058;-64
2020/12/30 11:00:17;;;;;;;37.92;26.85;;;;;;;4.66;81.22;94791.75;5087450;28;20407;-63
2020/12/30 11:02:44;;;;;;;36.05;27.15;;;;;;;4.72;81.05;94800.44;5069877;28;20063;-65
2020/12/30 11:05:11;;;;;;;36.10;27.10;;;;;;;4.75;81.63;94800.72;5093683;28;20044;-64
2020/12/30 11:07:38;;;;;;;34.00;26.30;;;;;;;4.75;80.30;94813.00;5088543;28;20047;-62
2020/12/30 11:10:05;;;;;;;32.50;26.25;;;;;;;4.72;81.05;94806.44;5085129;28;20063;-64
2020/12/30 11:12:37;;;;;;;35.65;26.52;;;;;;;4.74;81.39;94799.16;5087427;28;20051;-64
2020/12/30 11:15:06;;;;;;;53.13;29.90;;;;;;;4.70;80.98;94795.44;5105579;27;20055;-64
2020/12/30 11:17:34;;;;;;;50.78;34.80;;;;;;;4.60;80.94;94795.34;5078973;28;20048;-64
2020/12/30 11:20:02;;;;;;;52.97;40.55;;;;;;;4.60;82.06;94784.91;5086133;28;20051;-63
2020/12/30 11:22:30;;;;;;;44.70;33.70;;;;;;;4.65;81.36;94774.50;5083024;28;20048;-63
2020/12/30 11:24:58;;;;;;;44.35;31.15;;;;;;;4.75;82.07;94769.38;5084953;28;20040;-64
2020/12/30 11:27:25;;;;;;;23.85;18.20;;;;;;;4.75;79.48;94773.81;5095422;28;20043;-64
2020/12/30 11:29:52;;;;;;;23.67;17.63;;;;;;;4.82;79.99;94777.03;5088858;27;20407;-63
2020/12/30 11:32:20;;;;;;;32.47;25.20;;;;;;;4.91;81.24;94778.16;5103766;27;20054;-62
2020/12/30 11:34:49;;;;;;;31.27;24.90;;;;;;;4.98;81.01;94771.94;5105885;27;20051;-63